Time;durP1;ratioP1;P1;durP2;ratioP2;P2;SDS_P1;SDS_P2;PMS_P1;PMS_P2;Temp;Humidity;BMP_temperature;BMP_pressure;BME280_temperature;BME280_humidity;BME280_pressure;Samples;Min_cycle;Max_cycle;Signal;HPM_P1;HPM_P2
2022/11/11 00:00:50;;;;;;;64.50;47.50;;;15.30;95.70;;;;;;5003831;28;20642;-65
2022/11/11 00:03:36;;;;;;;72.23;51.67;;;15.30;95.60;;;;;;5002679;28;20323;-64
2022/11/11 00:06:21;;;;;;;66.70;47.60;;;15.30;95.60;;;;;;5005067;28;20203;-65
2022/11/11 00:09:09;;;;;;;63.03;47.77;;;15.30;95.70;;;;;;5006385;28;20358;-65
2022/11/11 00:11:54;;;;;;;65.57;47.40;;;15.30;95.70;;;;;;5004545;28;20238;-65
2022/11/11 00:14:39;;;;;;;68.57;48.30;;;15.30;95.80;;;;;;5006632;28;20327;-65
2022/11/11 00:26:37;;;;;;;67.83;49.53;;;15.30;95.90;;;;;;5005496;28;20250;-65
2022/11/11 00:29:25;;;;;;;70.37;48.60;;;15.30;95.90;;;;;;5006223;28;20269;-65
2022/11/11 00:32:22;;;;;;;70.07;48.37;;;15.30;95.90;;;;;;5002100;28;20658;-65
2022/11/11 00:41:19;;;;;;;65.73;47.00;;;15.30;95.90;;;;;;5007456;28;20206;-65
2022/11/11 00:44:06;;;;;;;65.07;47.27;;;15.30;95.90;;;;;;5005746;28;20278;-65
2022/11/11 00:52:59;;;;;;;68.20;46.67;;;15.30;95.90;;;;;;5005085;28;20266;-65
2022/11/11 00:55:45;;;;;;;65.27;48.83;;;15.30;95.90;;;;;;5005937;28;20269;-65
2022/11/11 00:58:31;;;;;;;65.73;47.27;;;15.30;95.90;;;;;;5006855;28;20218;-65
2022/11/11 01:01:17;;;;;;;65.37;48.40;;;15.30;95.90;;;;;;5005942;28;20218;-65
2022/11/11 01:04:03;;;;;;;65.33;47.57;;;15.30;95.90;;;;;;5003743;28;20246;-65
2022/11/11 01:06:49;;;;;;;64.17;47.43;;;15.30;96.00;;;;;;5004850;28;20222;-65
2022/11/11 01:09:35;;;;;;;69.67;49.00;;;15.30;96.00;;;;;;5007976;28;20222;-65
2022/11/11 01:12:21;;;;;;;68.27;48.23;;;15.30;96.00;;;;;;5004135;28;20727;-65
2022/11/11 01:15:07;;;;;;;66.87;47.07;;;15.30;96.00;;;;;;5001210;28;20207;-65
2022/11/11 01:17:52;;;;;;;67.47;49.10;;;15.30;96.00;;;;;;5009704;28;20214;-65
2022/11/11 01:20:39;;;;;;;67.80;47.90;;;15.30;96.00;;;;;;5005534;28;20313;-65
2022/11/11 01:23:25;;;;;;;65.63;47.07;;;15.30;96.00;;;;;;5007880;28;20334;-65
2022/11/11 01:26:14;;;;;;;68.00;47.67;;;15.30;96.00;;;;;;5006245;28;20241;-65
2022/11/11 01:29:00;;;;;;;66.50;48.00;;;15.30;96.00;;;;;;5008443;28;20659;-65
2022/11/11 01:31:45;;;;;;;72.40;51.63;;;15.30;96.00;;;;;;5005862;28;20220;-65
2022/11/11 01:34:31;;;;;;;70.60;48.40;;;15.30;96.00;;;;;;5002510;28;20211;-65
2022/11/11 01:37:17;;;;;;;70.63;48.53;;;15.30;96.00;;;;;;5001690;28;20297;-65
2022/11/11 01:40:03;;;;;;;67.13;47.60;;;15.30;96.00;;;;;;5004211;28;20644;-65
2022/11/11 01:43:13;;;;;;;65.87;48.30;;;15.30;96.00;;;;;;5001268;28;20207;-65
2022/11/11 01:46:02;;;;;;;64.00;48.17;;;15.30;96.00;;;;;;5002941;28;20222;-65
2022/11/11 01:52:10;;;;;;;64.87;46.23;;;15.30;96.00;;;;;;5004604;28;20723;-65
2022/11/11 01:55:04;;;;;;;64.53;46.37;;;15.20;95.90;;;;;;5001565;28;20314;-65
2022/11/11 01:57:58;;;;;;;67.57;46.37;;;15.20;95.90;;;;;;5005580;28;20350;-65
2022/11/11 02:00:44;;;;;;;67.57;47.67;;;15.20;95.90;;;;;;5002844;28;20217;-65
2022/11/11 02:03:34;;;;;;;61.93;47.53;;;15.20;95.90;;;;;;5002586;28;20558;-65
2022/11/11 02:06:19;;;;;;;68.50;46.00;;;15.20;95.90;;;;;;5002720;28;20204;-65
2022/11/11 02:09:07;;;;;;;64.70;47.80;;;15.20;96.00;;;;;;5003242;28;20218;-65
2022/11/11 02:15:01;;;;;;;68.80;46.90;;;15.20;96.00;;;;;;4999590;28;20267;-65
2022/11/11 02:17:48;;;;;;;70.90;48.30;;;15.20;96.00;;;;;;5006006;28;20213;-65
2022/11/11 02:20:41;;;;;;;64.10;47.73;;;15.20;96.00;;;;;;5002538;28;20214;-65
2022/11/11 02:23:39;;;;;;;68.40;47.53;;;15.20;96.00;;;;;;5003400;28;20222;-65
2022/11/11 02:26:27;;;;;;;67.60;48.43;;;15.20;96.00;;;;;;5003550;28;20242;-65
2022/11/11 02:29:18;;;;;;;67.23;46.10;;;15.20;95.90;;;;;;5001926;28;20262;-65
2022/11/11 02:32:04;;;;;;;64.73;45.90;;;15.20;95.90;;;;;;5002779;28;20544;-65
2022/11/11 02:34:50;;;;;;;65.53;46.50;;;15.10;95.90;;;;;;5000556;28;20538;-65
2022/11/11 02:37:35;;;;;;;66.17;44.63;;;15.00;95.90;;;;;;5004335;28;20284;-65
2022/11/11 02:43:45;;;;;;;65.90;44.13;;;14.90;95.90;;;;;;5001957;28;20262;-65
2022/11/11 02:46:30;;;;;;;63.90;47.30;;;14.80;95.90;;;;;;4999399;28;20224;-65
2022/11/11 02:49:16;;;;;;;64.87;45.37;;;14.80;96.00;;;;;;5002781;28;20346;-65
2022/11/11 02:52:02;;;;;;;62.63;45.57;;;14.70;96.00;;;;;;5005985;28;20553;-65
2022/11/11 02:54:48;;;;;;;63.90;46.10;;;14.70;96.00;;;;;;5003499;28;20296;-65
2022/11/11 02:57:35;;;;;;;65.50;46.77;;;14.60;96.00;;;;;;5004505;28;20210;-65
2022/11/11 03:00:20;;;;;;;69.33;45.23;;;14.60;96.00;;;;;;5003530;28;20201;-65
2022/11/11 03:03:06;;;;;;;63.10;45.90;;;14.50;96.00;;;;;;5004020;28;20548;-66
2022/11/11 03:05:52;;;;;;;67.93;46.63;;;14.50;96.10;;;;;;5001884;28;20221;-65
2022/11/11 03:08:37;;;;;;;66.67;44.70;;;14.40;96.10;;;;;;5001981;28;20214;-65
2022/11/11 03:11:29;;;;;;;65.20;44.53;;;14.40;96.20;;;;;;5000195;28;20217;-65
2022/11/11 03:14:15;;;;;;;66.90;46.27;;;14.30;96.20;;;;;;5006573;28;20221;-65
2022/11/11 03:23:17;;;;;;;64.37;43.73;;;14.10;96.40;;;;;;5003578;28;20280;-65
2022/11/11 03:26:03;;;;;;;61.67;45.27;;;14.10;96.10;;;;;;5005891;28;20761;-65
2022/11/11 03:28:49;;;;;;;58.77;43.13;;;14.00;96.10;;;;;;5001070;28;20285;-65
2022/11/11 03:31:36;;;;;;;57.70;42.37;;;14.00;96.10;;;;;;4998530;28;20222;-64
2022/11/11 03:34:21;;;;;;;62.50;43.97;;;13.90;96.10;;;;;;5003577;28;20289;-65
2022/11/11 03:40:14;;;;;;;52.50;38.90;;;13.90;96.10;;;;;;5004442;28;20292;-65
2022/11/11 03:42:59;;;;;;;63.03;42.53;;;13.80;96.00;;;;;;5007288;28;20293;-65
2022/11/11 03:45:54;;;;;;;61.70;44.80;;;13.80;96.00;;;;;;5005212;28;20216;-65
2022/11/11 03:48:40;;;;;;;61.47;42.07;;;13.70;96.00;;;;;;5007515;28;20213;-65
2022/11/11 03:51:25;;;;;;;63.53;42.20;;;13.70;96.00;;;;;;5008147;28;20207;-65
2022/11/11 03:54:11;;;;;;;70.23;46.30;;;13.60;96.00;;;;;;5007266;28;20225;-65
2022/11/11 03:57:29;;;;;;;69.30;45.67;;;13.60;96.10;;;;;;5004509;28;20211;-65
2022/11/11 04:00:03;;;;;;;63.50;43.60;;;13.60;96.20;;;;;;5006236;28;20293;-65
2022/11/11 04:12:19;;;;;;;54.97;39.10;;;13.50;96.30;;;;;;5006195;28;20230;-65
2022/11/11 04:18:09;;;;;;;60.83;40.13;;;13.40;96.30;;;;;;5006191;28;20227;-65
2022/11/11 04:23:59;;;;;;;54.30;38.43;;;13.30;96.20;;;;;;5006797;28;20205;-65
2022/11/11 04:26:44;;;;;;;55.27;39.77;;;13.20;96.20;;;;;;5002444;28;20371;-65
2022/11/11 04:29:30;;;;;;;47.60;36.17;;;13.20;96.10;;;;;;5006791;28;20229;-65
2022/11/11 04:32:41;;;;;;;50.23;37.00;;;13.20;96.10;;;;;;5002966;28;20212;-65
2022/11/11 04:35:27;;;;;;;49.10;36.63;;;13.10;96.10;;;;;;5007525;28;20219;-65
2022/11/11 04:41:16;;;;;;;51.97;40.23;;;13.00;95.90;;;;;;5005635;28;20295;-65
2022/11/11 04:47:07;;;;;;;50.07;38.70;;;13.00;96.10;;;;;;5005607;28;20551;-65
2022/11/11 04:49:52;;;;;;;46.50;36.73;;;13.00;96.00;;;;;;5004623;28;20649;-65
2022/11/11 04:52:37;;;;;;;49.50;35.40;;;12.90;96.00;;;;;;5002147;28;20266;-65
2022/11/11 04:58:30;;;;;;;48.97;36.57;;;12.90;95.90;;;;;;5004962;28;20212;-65
2022/11/11 05:03:14;;;;;;;50.53;37.33;;;12.90;95.90;;;;;;5005203;28;20537;-65
2022/11/11 05:04:21;;;;;;;53.80;39.13;;;12.90;95.90;;;;;;5004010;28;20311;-65
2022/11/11 05:10:11;;;;;;;67.27;40.53;;;13.00;96.00;;;;;;5004755;28;20685;-65
2022/11/11 05:21:19;;;;;;;59.57;41.43;;;13.00;96.00;;;;;;5001931;28;20204;-65
2022/11/11 05:22:37;;;;;;;91.97;44.30;;;13.10;96.00;;;;;;5003969;28;20210;-65
2022/11/11 05:25:25;;;;;;;211.63;44.90;;;13.10;96.10;;;;;;5004431;28;20231;-65
2022/11/11 05:28:11;;;;;;;140.33;44.60;;;13.10;96.10;;;;;;5005394;28;20257;-65
2022/11/11 05:30:56;;;;;;;129.10;46.83;;;13.10;96.20;;;;;;5001934;28;20237;-65
2022/11/11 05:33:42;;;;;;;100.27;41.97;;;13.10;96.20;;;;;;5004103;28;20228;-65
2022/11/11 05:36:27;;;;;;;116.17;43.70;;;13.10;96.30;;;;;;5001860;28;20213;-65
2022/11/11 05:39:13;;;;;;;77.97;45.47;;;13.20;96.40;;;;;;5004672;28;20213;-65
2022/11/11 05:41:58;;;;;;;99.73;46.83;;;13.20;96.40;;;;;;5003966;28;20283;-65
2022/11/11 05:44:44;;;;;;;99.87;45.73;;;13.20;96.40;;;;;;5002401;28;20656;-65
2022/11/11 05:47:30;;;;;;;118.17;46.07;;;13.20;96.40;;;;;;5004011;28;20723;-65
2022/11/11 05:50:16;;;;;;;95.50;46.47;;;13.20;96.50;;;;;;5003843;28;20283;-65
2022/11/11 05:53:01;;;;;;;89.57;45.70;;;13.20;96.50;;;;;;5002490;28;20654;-65
2022/11/11 05:55:48;;;;;;;119.27;45.10;;;13.20;96.60;;;;;;5005908;28;20209;-65
2022/11/11 05:58:34;;;;;;;119.57;45.60;;;13.30;96.60;;;;;;5006103;28;20663;-65
2022/11/11 06:01:19;;;;;;;179.13;47.27;;;13.30;96.60;;;;;;5001706;28;20654;-65
2022/11/11 06:04:05;;;;;;;141.87;45.87;;;13.30;96.60;;;;;;5005061;28;20301;-65
2022/11/11 06:06:51;;;;;;;200.07;46.43;;;13.30;96.60;;;;;;5005326;28;20217;-65
2022/11/11 06:09:37;;;;;;;167.57;45.50;;;13.30;96.60;;;;;;5004155;28;20233;-65
2022/11/11 06:12:22;;;;;;;165.60;45.77;;;13.30;96.70;;;;;;5004296;28;20215;-65
2022/11/11 06:15:09;;;;;;;175.67;44.40;;;13.30;96.70;;;;;;5000061;28;20242;-65
2022/11/11 06:17:54;;;;;;;110.60;45.23;;;13.40;96.80;;;;;;5004422;28;20216;-65
2022/11/11 06:20:40;;;;;;;119.63;46.67;;;13.30;96.80;;;;;;5002736;28;20207;-66
2022/11/11 06:23:34;;;;;;;146.40;45.07;;;13.40;96.90;;;;;;5058057;28;20629;-66
2022/11/11 06:26:20;;;;;;;102.77;46.83;;;13.40;96.90;;;;;;5039454;28;20230;-66
2022/11/11 06:29:05;;;;;;;165.30;45.27;;;13.40;96.90;;;;;;5042095;28;20208;-66
2022/11/11 06:31:51;;;;;;;194.27;46.13;;;13.40;96.90;;;;;;5040821;28;20244;-66
2022/11/11 06:34:36;;;;;;;116.33;45.17;;;13.40;96.90;;;;;;5045002;28;20215;-66
2022/11/11 06:37:22;;;;;;;112.33;44.90;;;13.40;96.80;;;;;;5046044;28;20550;-66
2022/11/11 06:40:08;;;;;;;142.97;45.63;;;13.40;96.80;;;;;;5046817;28;20256;-67
2022/11/11 06:42:54;;;;;;;103.73;44.53;;;13.40;96.80;;;;;;5043890;28;20233;-66
2022/11/11 06:45:39;;;;;;;133.93;45.33;;;13.40;96.70;;;;;;5044141;28;20650;-66
2022/11/11 06:48:26;;;;;;;78.77;45.47;;;13.40;96.70;;;;;;5045515;28;20224;-66
2022/11/11 06:51:13;;;;;;;109.30;43.97;;;13.40;96.80;;;;;;5040585;28;20300;-66
2022/11/11 06:53:59;;;;;;;153.93;45.07;;;13.40;96.80;;;;;;5042903;28;20213;-66
2022/11/11 06:56:47;;;;;;;89.57;45.50;;;13.30;96.80;;;;;;5046021;28;20216;-66
2022/11/11 06:59:32;;;;;;;96.77;46.63;;;13.30;96.80;;;;;;5044789;28;20349;-66
2022/11/11 07:02:18;;;;;;;153.67;45.40;;;13.40;96.90;;;;;;5045197;28;20284;-66
2022/11/11 07:05:04;;;;;;;85.87;45.97;;;13.40;96.90;;;;;;5046579;28;20203;-66
2022/11/11 07:07:49;;;;;;;111.07;44.97;;;13.40;96.90;;;;;;5040460;28;20215;-66
2022/11/11 07:10:37;;;;;;;87.87;46.73;;;13.40;96.90;;;;;;5037854;28;20216;-66
2022/11/11 07:13:23;;;;;;;84.43;45.53;;;13.40;97.00;;;;;;5046418;28;20272;-66
2022/11/11 07:16:10;;;;;;;80.03;46.27;;;13.50;97.00;;;;;;5045474;28;20244;-66
2022/11/11 07:18:56;;;;;;;93.83;46.40;;;13.50;97.00;;;;;;5043177;28;20569;-66
2022/11/11 07:21:41;;;;;;;109.93;47.90;;;13.50;97.00;;;;;;5046043;28;20268;-66
2022/11/11 07:24:27;;;;;;;95.57;48.40;;;13.50;97.10;;;;;;5042234;28;20548;-66
2022/11/11 07:27:12;;;;;;;81.03;48.87;;;13.60;97.10;;;;;;5042039;28;20266;-66
2022/11/11 07:29:58;;;;;;;88.87;46.77;;;13.60;97.10;;;;;;5040203;28;20208;-66
2022/11/11 07:32:48;;;;;;;92.43;47.50;;;13.70;97.10;;;;;;5040465;28;20219;-66
2022/11/11 07:35:33;;;;;;;83.77;46.67;;;13.70;97.10;;;;;;5031068;28;20307;-66
2022/11/11 07:38:19;;;;;;;92.23;47.03;;;13.80;97.10;;;;;;5032910;28;20216;-66
2022/11/11 07:41:05;;;;;;;66.83;45.50;;;13.80;97.10;;;;;;5031636;28;20273;-66
2022/11/11 07:43:50;;;;;;;78.57;47.97;;;13.80;97.10;;;;;;5027746;28;20216;-66
2022/11/11 07:46:36;;;;;;;103.53;46.40;;;13.80;97.10;;;;;;5025494;28;20212;-66
2022/11/11 07:49:21;;;;;;;77.50;45.33;;;13.90;97.10;;;;;;5029355;28;20594;-67
2022/11/11 07:52:07;;;;;;;73.67;49.07;;;14.00;97.10;;;;;;5028543;28;20229;-66
2022/11/11 07:54:53;;;;;;;91.23;48.20;;;14.00;97.10;;;;;;5030781;28;20606;-66
2022/11/11 07:57:38;;;;;;;74.17;47.87;;;14.10;97.10;;;;;;5032707;28;20657;-66
2022/11/11 08:00:24;;;;;;;90.50;49.23;;;14.10;97.00;;;;;;5031122;28;20213;-66
2022/11/11 08:03:09;;;;;;;91.07;50.40;;;14.20;97.00;;;;;;5032916;28;20358;-69
2022/11/11 08:05:55;;;;;;;80.50;50.93;;;14.20;97.00;;;;;;5021588;28;20709;-65
2022/11/11 08:08:41;;;;;;;90.73;55.63;;;14.30;97.00;;;;;;5026006;28;20296;-65
2022/11/11 08:14:31;;;;;;;84.43;53.43;;;14.30;97.00;;;;;;5031020;28;20671;-67
2022/11/11 08:17:16;;;;;;;105.13;56.43;;;14.40;97.00;;;;;;5029691;28;20353;-65
2022/11/11 08:20:02;;;;;;;105.47;56.53;;;14.50;97.00;;;;;;5030641;28;20221;-67
2022/11/11 08:22:48;;;;;;;101.70;56.73;;;14.50;97.00;;;;;;5028829;28;20261;-64
2022/11/11 08:25:54;;;;;;;99.50;57.50;;;14.50;96.90;;;;;;5028147;28;20218;-64
2022/11/11 08:28:40;;;;;;;124.53;56.83;;;14.60;96.90;;;;;;5027667;28;20214;-64
2022/11/11 08:31:25;;;;;;;100.30;58.60;;;14.70;96.80;;;;;;5026630;28;20199;-65
2022/11/11 08:34:11;;;;;;;108.73;59.80;;;14.70;96.60;;;;;;5026968;28;20218;-66
2022/11/11 08:36:56;;;;;;;101.73;57.90;;;14.70;96.70;;;;;;5027260;28;20207;-65
2022/11/11 08:39:42;;;;;;;98.63;59.53;;;14.80;96.70;;;;;;5032024;28;20233;-66
2022/11/11 08:42:27;;;;;;;102.03;60.10;;;14.80;96.70;;;;;;5026748;28;20773;-67
2022/11/11 08:45:13;;;;;;;90.40;57.07;;;14.80;96.70;;;;;;5024515;28;20206;-66
2022/11/11 08:47:59;;;;;;;102.57;60.50;;;14.90;96.70;;;;;;5028034;28;20205;-66
2022/11/11 08:50:44;;;;;;;94.47;58.03;;;15.00;96.70;;;;;;5032307;28;20240;-67
2022/11/11 08:53:31;;;;;;;100.73;60.13;;;15.00;96.50;;;;;;5031912;28;20217;-66
2022/11/11 08:56:16;;;;;;;98.97;60.37;;;15.00;96.50;;;;;;5031708;28;20210;-67
2022/11/11 08:59:02;;;;;;;92.17;56.97;;;15.20;96.50;;;;;;5029471;28;20534;-65
2022/11/11 09:01:48;;;;;;;93.53;56.60;;;15.20;96.40;;;;;;5024023;28;20222;-65
2022/11/11 09:04:33;;;;;;;108.47;60.90;;;15.20;96.20;;;;;;5025206;28;20327;-67
2022/11/11 09:07:39;;;;;;;97.37;60.00;;;15.20;96.00;;;;;;5022624;28;20242;-67
2022/11/11 09:10:24;;;;;;;104.23;62.30;;;15.30;96.00;;;;;;5027635;28;20646;-66
2022/11/11 09:13:10;;;;;;;108.40;64.07;;;15.30;96.00;;;;;;5029577;28;20304;-65
2022/11/11 09:15:56;;;;;;;106.60;64.13;;;15.40;96.10;;;;;;5030734;28;20206;-66
2022/11/11 09:18:42;;;;;;;100.33;60.43;;;15.50;96.10;;;;;;5031251;28;20217;-65
2022/11/11 09:21:27;;;;;;;96.37;58.23;;;15.60;96.10;;;;;;5026469;28;20257;-66
2022/11/11 09:24:13;;;;;;;88.20;54.10;;;15.70;95.80;;;;;;5027099;28;20218;-66
2022/11/11 09:26:58;;;;;;;87.53;53.47;;;15.60;95.30;;;;;;5026959;28;20274;-65
2022/11/11 09:29:44;;;;;;;87.07;55.73;;;15.60;95.30;;;;;;5031262;28;20694;-64
2022/11/11 09:32:29;;;;;;;92.53;54.63;;;15.60;95.30;;;;;;5025788;28;20302;-65
2022/11/11 09:35:15;;;;;;;88.23;55.93;;;15.60;94.90;;;;;;5027091;28;20222;-66
2022/11/11 09:38:01;;;;;;;93.07;57.70;;;15.50;94.90;;;;;;5031300;28;20217;-65
2022/11/11 09:41:03;;;;;;;90.93;56.23;;;15.50;95.10;;;;;;5026508;28;20217;-63
2022/11/11 09:44:02;;;;;;;91.30;57.30;;;15.50;95.50;;;;;;5028782;28;20294;-67
2022/11/11 09:47:23;;;;;;;94.93;57.47;;;15.70;95.90;;;;;;5025638;28;20206;-66
2022/11/11 09:50:12;;;;;;;89.20;54.90;;;15.90;95.80;;;;;;5029131;28;20230;-65
2022/11/11 09:53:12;;;;;;;83.97;53.43;;;16.10;95.50;;;;;;5030022;28;20544;-67
2022/11/11 09:56:06;;;;;;;86.97;52.67;;;16.20;94.40;;;;;;5031244;28;20218;-65
2022/11/11 09:59:52;;;;;;;86.10;52.50;;;16.10;94.20;;;;;;5028617;28;20217;-66
2022/11/11 10:02:46;;;;;;;86.30;54.50;;;16.00;94.40;;;;;;5026527;28;20246;-65
2022/11/11 10:05:46;;;;;;;75.00;50.33;;;16.00;94.50;;;;;;5026564;28;20202;-65
2022/11/11 10:09:01;;;;;;;83.07;52.70;;;16.10;94.30;;;;;;5028358;28;20265;-68
2022/11/11 10:12:07;;;;;;;74.43;52.13;;;16.00;94.00;;;;;;5030243;28;20215;-65
2022/11/11 10:14:54;;;;;;;80.13;51.50;;;15.90;94.20;;;;;;5029241;28;20207;-66
2022/11/11 10:17:51;;;;;;;80.07;53.77;;;15.90;94.40;;;;;;5032338;28;20213;-66
2022/11/11 10:20:43;;;;;;;79.10;51.97;;;15.90;94.50;;;;;;5031576;28;20218;-65
2022/11/11 10:23:33;;;;;;;78.40;51.53;;;16.10;94.70;;;;;;5024477;28;20257;-66
2022/11/11 10:26:28;;;;;;;75.73;51.57;;;16.10;94.40;;;;;;5023951;28;20201;-66
2022/11/11 10:29:18;;;;;;;80.57;53.70;;;16.20;94.30;;;;;;5030040;28;20346;-65
2022/11/11 10:32:17;;;;;;;77.33;54.37;;;16.30;94.30;;;;;;5027632;28;20404;-65
2022/11/11 10:35:17;;;;;;;82.43;54.40;;;16.50;94.20;;;;;;5028114;28;20349;-64
2022/11/11 10:38:50;;;;;;;84.27;55.43;;;16.60;93.90;;;;;;5031258;28;20225;-65
2022/11/11 10:41:46;;;;;;;83.17;56.57;;;16.60;93.60;;;;;;5027252;28;20210;-65
2022/11/11 10:44:35;;;;;;;78.77;52.93;;;16.70;93.60;;;;;;5026926;28;20647;-65
2022/11/11 10:47:59;;;;;;;77.60;54.13;;;16.80;93.60;;;;;;5026571;28;20206;-66
2022/11/11 10:50:49;;;;;;;83.30;57.03;;;16.90;93.40;;;;;;5022746;28;20233;-65
2022/11/11 10:53:56;;;;;;;81.53;56.00;;;17.00;93.20;;;;;;5026611;28;20211;-65
2022/11/11 10:56:46;;;;;;;77.80;53.53;;;17.20;93.20;;;;;;5026797;28;20217;-65
2022/11/11 10:59:38;;;;;;;83.50;56.17;;;17.40;92.90;;;;;;5021582;28;20216;-65
2022/11/11 11:02:36;;;;;;;85.57;56.43;;;17.50;92.30;;;;;;5023722;28;20746;-63
2022/11/11 11:05:39;;;;;;;83.97;58.13;;;17.50;92.00;;;;;;5024172;28;20211;-64
2022/11/11 11:08:29;;;;;;;72.53;51.87;;;17.60;91.90;;;;;;5029911;28;20284;-64
2022/11/11 11:11:33;;;;;;;83.20;56.77;;;17.50;91.60;;;;;;5033138;28;20563;-65
2022/11/11 11:14:33;;;;;;;71.67;50.50;;;17.50;91.60;;;;;;5034911;28;20214;-65
2022/11/11 11:17:29;;;;;;;75.57;51.73;;;17.60;91.90;;;;;;5030890;28;20218;-65
2022/11/11 11:20:19;;;;;;;73.60;52.90;;;17.80;91.90;;;;;;5029331;28;20283;-66
2022/11/11 11:23:05;;;;;;;76.63;54.40;;;18.00;91.50;;;;;;5024928;28;20248;-64
2022/11/11 11:25:56;;;;;;;71.17;51.73;;;18.20;91.40;;;;;;5024498;28;20205;-64
2022/11/11 11:29:07;;;;;;;77.10;55.10;;;18.30;90.60;;;;;;5033141;28;20206;-64
2022/11/11 11:31:53;;;;;;;79.93;52.40;;;18.30;90.10;;;;;;5028813;28;20210;-65
2022/11/11 11:34:55;;;;;;;76.43;54.97;;;18.20;89.90;;;;;;5032681;28;20212;-65
2022/11/11 11:37:49;;;;;;;65.90;45.57;;;18.20;89.80;;;;;;5031618;28;20214;-65
2022/11/11 11:40:57;;;;;;;73.73;50.23;;;18.20;89.80;;;;;;5029785;28;20251;-65
2022/11/11 11:43:43;;;;;;;72.50;51.47;;;18.30;89.50;;;;;;5031043;28;20230;-65
2022/11/11 11:46:38;;;;;;;64.37;46.83;;;18.30;88.90;;;;;;5030299;28;20219;-63
2022/11/11 11:49:33;;;;;;;71.00;49.60;;;18.20;88.70;;;;;;5029159;28;20215;-65
2022/11/11 11:52:31;;;;;;;70.30;51.30;;;18.20;88.10;;;;;;5029292;28;20250;-67
2022/11/11 11:55:21;;;;;;;67.57;49.70;;;18.10;87.80;;;;;;5033413;28;20210;-63
2022/11/11 11:58:10;;;;;;;70.13;48.20;;;18.10;88.70;;;;;;5026216;28;20219;-65
2022/11/11 12:01:06;;;;;;;67.87;48.83;;;18.20;88.60;;;;;;5027030;28;20219;-64
2022/11/11 12:04:16;;;;;;;76.80;52.07;;;18.20;87.70;;;;;;5027963;28;20675;-65
2022/11/11 12:07:07;;;;;;;63.63;46.53;;;18.30;87.50;;;;;;5031256;28;20210;-64
2022/11/11 12:10:23;;;;;;;69.43;51.17;;;18.30;87.50;;;;;;5032987;28;20567;-64
2022/11/11 12:13:11;;;;;;;68.30;49.20;;;18.40;87.40;;;;;;5030055;28;20300;-66
2022/11/11 12:16:19;;;;;;;69.07;47.50;;;18.40;87.10;;;;;;5026100;28;20223;-66
2022/11/11 12:19:27;;;;;;;57.33;44.13;;;18.40;86.90;;;;;;5027472;28;20223;-65
2022/11/11 12:22:23;;;;;;;58.93;43.97;;;18.40;86.20;;;;;;5024160;28;20857;-64
2022/11/11 12:25:34;;;;;;;58.80;43.10;;;18.40;86.00;;;;;;5028278;28;20216;-64
2022/11/11 12:28:40;;;;;;;55.97;42.60;;;18.40;85.60;;;;;;5032554;28;20222;-64
2022/11/11 12:31:35;;;;;;;53.87;39.53;;;18.40;84.90;;;;;;5029049;28;20558;-64
2022/11/11 12:34:54;;;;;;;48.33;36.43;;;18.30;84.40;;;;;;5032588;28;20204;-64
2022/11/11 12:38:00;;;;;;;53.53;38.90;;;18.20;84.00;;;;;;5029360;28;20207;-64
2022/11/11 12:40:59;;;;;;;55.73;39.73;;;18.00;84.30;;;;;;5022431;28;20216;-64
2022/11/11 12:43:58;;;;;;;58.87;41.30;;;17.90;85.00;;;;;;5029423;28;20620;-64
2022/11/11 12:47:05;;;;;;;55.27;40.73;;;17.90;85.70;;;;;;5027730;28;20232;-64
2022/11/11 12:50:20;;;;;;;60.73;41.83;;;17.90;86.40;;;;;;5027453;28;20815;-64
2022/11/11 12:53:33;;;;;;;56.97;41.03;;;18.00;86.80;;;;;;5031972;28;20647;-64
2022/11/11 12:56:35;;;;;;;63.13;46.57;;;18.00;87.30;;;;;;5024863;28;20645;-64
2022/11/11 12:59:43;;;;;;;61.47;42.80;;;18.00;87.60;;;;;;5030830;28;20268;-64
2022/11/11 13:02:34;;;;;;;49.33;37.23;;;18.00;87.70;;;;;;5026417;28;20223;-65
2022/11/11 13:05:25;;;;;;;47.80;36.60;;;18.00;87.10;;;;;;5028308;28;20314;-64
2022/11/11 13:08:17;;;;;;;51.90;38.57;;;18.00;85.60;;;;;;5030188;28;20646;-65
2022/11/11 13:11:31;;;;;;;51.13;37.40;;;17.90;85.40;;;;;;5029324;28;20212;-67
2022/11/11 13:14:19;;;;;;;53.23;39.27;;;17.90;85.80;;;;;;5023779;28;20320;-67
2022/11/11 13:17:13;;;;;;;54.57;40.13;;;17.90;86.20;;;;;;5026147;28;20253;-66
2022/11/11 13:20:20;;;;;;;55.47;40.93;;;17.90;86.60;;;;;;5028120;28;20223;-67
2022/11/11 13:23:10;;;;;;;60.60;42.77;;;17.90;86.60;;;;;;5028293;28;20240;-65
2022/11/11 13:25:59;;;;;;;52.47;39.17;;;17.90;87.00;;;;;;5029770;28;20204;-65
2022/11/11 13:28:48;;;;;;;50.27;37.80;;;17.90;87.00;;;;;;5029668;28;20219;-65
2022/11/11 13:31:37;;;;;;;51.87;37.27;;;17.90;86.20;;;;;;5032153;28;20215;-66
2022/11/11 13:34:24;;;;;;;53.77;38.37;;;17.80;86.00;;;;;;5024349;28;20689;-66
2022/11/11 13:37:21;;;;;;;57.20;40.10;;;17.80;86.10;;;;;;5029397;28;20216;-66
2022/11/11 13:40:14;;;;;;;60.77;42.63;;;17.80;86.40;;;;;;5023827;28;20215;-65
2022/11/11 13:43:00;;;;;;;57.37;42.13;;;17.80;86.90;;;;;;5030846;28;20312;-65
2022/11/11 13:45:58;;;;;;;61.17;42.43;;;17.80;87.20;;;;;;5030260;28;20709;-65
2022/11/11 13:48:47;;;;;;;62.30;41.30;;;17.80;87.50;;;;;;5027710;28;20219;-67
2022/11/11 13:51:42;;;;;;;53.80;39.40;;;17.70;87.60;;;;;;5029752;28;20297;-67
2022/11/11 13:54:29;;;;;;;53.67;38.03;;;17.70;87.90;;;;;;5025303;28;20224;-66
2022/11/11 13:57:23;;;;;;;50.80;37.83;;;17.60;87.40;;;;;;5027617;28;20315;-66
2022/11/11 14:00:36;;;;;;;51.80;36.40;;;17.60;87.30;;;;;;5030691;28;20230;-66
2022/11/11 14:03:25;;;;;;;52.73;37.90;;;17.60;87.40;;;;;;5024307;28;20310;-65
2022/11/11 14:06:13;;;;;;;52.20;38.07;;;17.60;87.40;;;;;;5026046;28;20216;-64
2022/11/11 14:09:00;;;;;;;47.63;36.73;;;17.60;87.40;;;;;;5029330;28;20643;-65
2022/11/11 14:11:45;;;;;;;51.27;36.93;;;17.50;87.40;;;;;;5028343;28;20214;-64
2022/11/11 14:14:31;;;;;;;51.47;37.30;;;17.50;86.90;;;;;;5024320;28;20258;-65
2022/11/11 14:17:17;;;;;;;55.77;37.57;;;17.50;87.10;;;;;;5028016;28;20322;-65
2022/11/11 14:20:38;;;;;;;61.80;43.23;;;17.50;87.40;;;;;;5029307;28;20310;-63
2022/11/11 14:23:42;;;;;;;61.57;43.67;;;17.50;87.80;;;;;;5028107;28;20251;-62
2022/11/11 14:26:28;;;;;;;62.23;44.20;;;17.50;88.00;;;;;;5028049;28;20216;-65
2022/11/11 14:29:18;;;;;;;71.17;48.40;;;17.40;88.20;;;;;;5027813;28;20208;-66
2022/11/11 14:32:39;;;;;;;78.07;48.10;;;17.40;88.60;;;;;;5025472;28;20222;-65
2022/11/11 14:35:37;;;;;;;71.00;47.57;;;17.40;89.20;;;;;;5027543;28;20222;-65
2022/11/11 14:38:55;;;;;;;75.30;46.50;;;17.30;89.30;;;;;;5023471;28;20222;-65
2022/11/11 14:41:40;;;;;;;71.73;46.13;;;17.30;89.50;;;;;;5024609;28;20266;-64
2022/11/11 14:44:26;;;;;;;78.60;48.40;;;17.30;89.40;;;;;;5029903;28;20225;-67
2022/11/11 14:47:11;;;;;;;78.07;50.27;;;17.20;89.70;;;;;;5029659;28;20300;-66
2022/11/11 14:49:58;;;;;;;72.33;48.87;;;17.20;89.80;;;;;;5032327;28;20206;-65
2022/11/11 14:52:45;;;;;;;70.43;46.97;;;17.10;90.00;;;;;;5031708;28;20290;-64
2022/11/11 14:55:36;;;;;;;75.97;49.10;;;17.10;90.10;;;;;;5024919;28;20214;-61
2022/11/11 14:58:33;;;;;;;82.30;50.03;;;17.00;90.20;;;;;;5024230;28;20549;-64
2022/11/11 15:01:20;;;;;;;75.90;48.13;;;16.90;90.40;;;;;;5032818;28;20238;-64
2022/11/11 15:04:06;;;;;;;71.97;47.10;;;16.90;90.50;;;;;;5032658;28;20819;-64
2022/11/11 15:07:00;;;;;;;74.00;46.80;;;16.90;90.60;;;;;;5029413;28;20778;-65
2022/11/11 15:09:52;;;;;;;77.00;50.03;;;16.80;90.80;;;;;;5032256;28;20213;-65
2022/11/11 15:13:05;;;;;;;78.57;50.20;;;16.80;90.80;;;;;;5025702;28;20283;-65
2022/11/11 15:16:15;;;;;;;78.17;48.70;;;16.70;90.90;;;;;;5029497;28;20656;-64
2022/11/11 15:19:12;;;;;;;79.27;50.07;;;16.70;91.00;;;;;;5028623;28;20211;-64
2022/11/11 15:22:19;;;;;;;78.17;47.87;;;16.60;91.10;;;;;;5030394;28;20247;-65
2022/11/11 15:25:28;;;;;;;66.00;44.73;;;16.50;91.10;;;;;;5027598;28;20589;-65
2022/11/11 15:28:37;;;;;;;72.97;46.63;;;16.50;91.20;;;;;;5024017;28;20224;-65
2022/11/11 15:31:28;;;;;;;72.07;45.63;;;16.50;91.30;;;;;;5026205;28;20670;-65
2022/11/11 15:34:54;;;;;;;72.80;44.90;;;16.30;91.30;;;;;;5030172;28;20297;-64
2022/11/11 15:37:39;;;;;;;70.77;46.00;;;16.30;91.50;;;;;;5028837;28;20206;-65
2022/11/11 15:40:30;;;;;;;76.07;46.63;;;16.20;91.60;;;;;;5028249;28;20291;-65
2022/11/11 15:43:20;;;;;;;68.33;45.87;;;16.20;91.70;;;;;;5031004;28;20210;-65
2022/11/11 15:46:06;;;;;;;76.77;47.57;;;16.10;91.80;;;;;;5032649;28;20212;-65